Time;durP1;ratioP1;P1;durP2;ratioP2;P2;SDS_P1;SDS_P2;PMS_P1;PMS_P2;Temp;Humidity;BMP_temperature;BMP_pressure;BME280_temperature;BME280_humidity;BME280_pressure;Samples;Min_cycle;Max_cycle;Signal;HPM_P1;HPM_P2
2024/01/22 00:02:41;;;;;;;;;;;;;;;20.34;41.20;96529.94;10469450;28;2918;-65
2024/01/22 00:07:41;;;;;;;;;;;;;;;20.36;41.19;96527.06;10471213;28;2921;-65
2024/01/22 00:12:41;;;;;;;;;;;;;;;20.30;41.09;96528.06;10467455;28;3099;-64
2024/01/22 00:17:41;;;;;;;;;;;;;;;20.35;42.01;96534.16;10470304;28;2925;-64
2024/01/22 00:22:41;;;;;;;;;;;;;;;20.33;40.93;96525.72;10466901;28;3024;-65
2024/01/22 00:27:42;;;;;;;;;;;;;;;20.34;41.97;96508.88;10473171;28;2889;-65
2024/01/22 00:32:42;;;;;;;;;;;;;;;20.32;41.68;96497.03;10469606;28;3029;-64
2024/01/22 00:37:43;;;;;;;;;;;;;;;20.34;41.83;96498.34;10467030;28;3326;-66
2024/01/22 00:42:43;;;;;;;;;;;;;;;20.34;40.10;96489.66;10465388;28;2972;-65
2024/01/22 00:47:44;;;;;;;;;;;;;;;20.22;42.58;96490.63;10470384;28;2958;-66
2024/01/22 00:52:44;;;;;;;;;;;;;;;20.32;39.91;96487.25;10468045;28;3015;-65
2024/01/22 00:57:44;;;;;;;;;;;;;;;20.30;42.21;96478.81;10471795;28;3162;-66
2024/01/22 01:02:44;;;;;;;;;;;;;;;20.33;41.54;96467.78;10469513;28;3417;-66
2024/01/22 01:07:45;;;;;;;;;;;;;;;20.31;40.75;96463.81;10467311;28;3005;-66
2024/01/22 01:12:45;;;;;;;;;;;;;;;20.33;41.37;96464.38;10471785;28;3053;-66
2024/01/22 01:17:45;;;;;;;;;;;;;;;20.31;40.70;96463.81;10465072;28;3085;-64
2024/01/22 01:22:46;;;;;;;;;;;;;;;20.29;39.89;96466.72;10465879;28;3198;-66
2024/01/22 01:27:46;;;;;;;;;;;;;;;20.28;41.22;96462.50;10465467;28;2960;-65
2024/01/22 01:32:46;;;;;;;;;;;;;;;20.23;39.39;96459.84;10469308;28;2840;-63
2024/01/22 01:37:46;;;;;;;;;;;;;;;20.26;39.88;96454.84;10467370;28;3199;-66
2024/01/22 01:42:47;;;;;;;;;;;;;;;20.29;40.80;96450.94;10467440;28;3085;-65
2024/01/22 01:47:50;;;;;;;;;;;;;;;20.30;41.24;96435.94;10470073;28;2893;-65
2024/01/22 01:52:50;;;;;;;;;;;;;;;20.29;40.48;96432.50;10467579;28;3004;-65
2024/01/22 01:57:50;;;;;;;;;;;;;;;20.30;38.68;96428.03;10469047;28;3052;-64
2024/01/22 02:02:50;;;;;;;;;;;;;;;20.26;40.03;96433.00;10470005;28;2909;-65
2024/01/22 02:07:51;;;;;;;;;;;;;;;20.19;40.47;96421.88;10496726;28;2976;-65
2024/01/22 02:12:51;;;;;;;;;;;;;;;20.19;39.09;96419.25;10467012;28;3051;-65
2024/01/22 02:17:51;;;;;;;;;;;;;;;20.24;40.26;96406.13;10462275;28;2962;-65
2024/01/22 02:22:51;;;;;;;;;;;;;;;20.22;39.46;96397.69;10462836;28;3017;-66
2024/01/22 02:27:52;;;;;;;;;;;;;;;20.19;38.26;96396.38;10467551;28;3379;-65
2024/01/22 02:32:52;;;;;;;;;;;;;;;20.18;39.44;96399.22;10500799;28;2956;-66
2024/01/22 02:37:52;;;;;;;;;;;;;;;20.21;40.62;96388.22;10463166;28;3310;-66
2024/01/22 02:42:52;;;;;;;;;;;;;;;20.27;38.61;96381.94;10469687;28;2937;-65
2024/01/22 02:47:53;;;;;;;;;;;;;;;20.18;40.63;96367.63;10464737;28;2907;-65
2024/01/22 02:52:53;;;;;;;;;;;;;;;20.18;41.44;96359.75;10462869;28;2897;-65
2024/01/22 02:57:53;;;;;;;;;;;;;;;20.15;40.83;96353.13;10465689;28;2937;-65
2024/01/22 03:02:53;;;;;;;;;;;;;;;20.16;40.59;96344.22;10465597;28;3033;-64
2024/01/22 03:07:54;;;;;;;;;;;;;;;20.12;40.81;96337.88;10463756;28;2902;-66
2024/01/22 03:12:54;;;;;;;;;;;;;;;20.14;39.77;96340.25;10470695;28;2969;-66
2024/01/22 03:17:54;;;;;;;;;;;;;;;20.16;39.26;96327.63;10462750;28;3313;-65
2024/01/22 03:22:54;;;;;;;;;;;;;;;20.12;39.11;96327.34;10463980;28;2954;-66
2024/01/22 03:27:55;;;;;;;;;;;;;;;20.14;40.51;96314.72;10462919;28;2961;-65
2024/01/22 03:32:55;;;;;;;;;;;;;;;20.05;39.92;96326.00;10462647;28;3066;-65
2024/01/22 03:37:55;;;;;;;;;;;;;;;20.07;39.30;96323.91;10464704;28;3325;-66
2024/01/22 03:42:56;;;;;;;;;;;;;;;20.03;40.27;96328.09;10463461;28;2898;-66
2024/01/22 03:47:56;;;;;;;;;;;;;;;20.08;40.23;96322.84;10467856;28;3053;-66
2024/01/22 03:52:56;;;;;;;;;;;;;;;20.13;39.12;96312.34;10472589;28;2974;-66
2024/01/22 03:57:56;;;;;;;;;;;;;;;20.12;39.18;96314.19;10471589;28;3019;-65
2024/01/22 04:02:57;;;;;;;;;;;;;;;20.07;38.49;96302.84;10475074;28;2918;-66
2024/01/22 04:07:57;;;;;;;;;;;;;;;20.03;39.41;96299.91;10473927;28;2969;-66
2024/01/22 04:12:57;;;;;;;;;;;;;;;20.13;39.17;96286.03;10482660;28;2880;-65
2024/01/22 04:17:57;;;;;;;;;;;;;;;20.07;39.88;96272.03;10470168;28;2922;-67
2024/01/22 04:22:58;;;;;;;;;;;;;;;20.08;39.69;96268.38;10469152;28;2930;-67
2024/01/22 04:27:58;;;;;;;;;;;;;;;20.05;38.01;96249.69;10475320;28;2940;-66
2024/01/22 04:32:58;;;;;;;;;;;;;;;20.05;40.93;96239.94;10472874;28;3134;-67
2024/01/22 04:37:58;;;;;;;;;;;;;;;19.99;39.73;96233.06;10467822;28;3333;-68
2024/01/22 04:42:59;;;;;;;;;;;;;;;20.08;37.85;96223.63;10497583;28;3023;-66
2024/01/22 04:47:59;;;;;;;;;;;;;;;20.03;39.57;96214.94;10470995;28;2989;-66
2024/01/22 04:52:59;;;;;;;;;;;;;;;20.01;40.19;96217.03;10467504;28;3041;-66
2024/01/22 04:57:59;;;;;;;;;;;;;;;20.09;39.54;96182.31;10471244;28;2940;-65
2024/01/22 05:03:04;;;;;;;;;;;;;;;20.06;39.05;96180.19;10472555;28;2997;-65
2024/01/22 05:08:04;;;;;;;;;;;;;;;20.06;38.80;96164.41;10465934;28;2880;-65
2024/01/22 05:13:04;;;;;;;;;;;;;;;20.00;40.43;96168.06;10471658;28;2877;-66
2024/01/22 05:18:05;;;;;;;;;;;;;;;20.05;39.13;96162.84;10470578;28;3078;-66
2024/01/22 05:23:05;;;;;;;;;;;;;;;20.02;39.51;96173.88;10467184;28;2971;-65
2024/01/22 05:28:05;;;;;;;;;;;;;;;19.95;39.04;96162.78;10467617;28;2941;-65
2024/01/22 05:33:05;;;;;;;;;;;;;;;20.04;39.27;96158.63;10469271;28;3183;-66
2024/01/22 05:38:06;;;;;;;;;;;;;;;20.09;38.14;96153.38;10464058;28;3271;-65
2024/01/22 05:43:06;;;;;;;;;;;;;;;19.99;39.02;96153.34;10466864;28;2930;-66
2024/01/22 05:48:07;;;;;;;;;;;;;;;20.03;39.37;96149.16;10464073;28;2996;-65
2024/01/22 05:53:07;;;;;;;;;;;;;;;20.04;39.55;96159.41;10459960;28;2930;-65
2024/01/22 05:58:07;;;;;;;;;;;;;;;19.95;39.52;96150.44;10464056;28;3105;-66
2024/01/22 06:03:08;;;;;;;;;;;;;;;19.95;38.43;96154.91;10465795;28;3006;-65
2024/01/22 06:08:08;;;;;;;;;;;;;;;19.96;37.46;96173.06;10469107;28;2961;-67
2024/01/22 06:13:08;;;;;;;;;;;;;;;19.97;39.44;96161.50;10464476;28;3420;-67
2024/01/22 06:18:08;;;;;;;;;;;;;;;19.93;38.87;96159.63;10474113;28;2933;-67
2024/01/22 06:23:09;;;;;;;;;;;;;;;19.92;39.54;96158.06;10465727;28;2906;-67
2024/01/22 06:28:09;;;;;;;;;;;;;;;19.96;37.84;96154.66;10468321;28;2980;-66
2024/01/22 06:33:09;;;;;;;;;;;;;;;19.98;38.40;96152.56;10468782;28;3222;-66
2024/01/22 06:38:09;;;;;;;;;;;;;;;20.01;38.11;96143.38;10462413;28;3188;-67
2024/01/22 06:43:10;;;;;;;;;;;;;;;20.04;39.39;96124.41;10466869;28;2860;-66
2024/01/22 06:48:11;;;;;;;;;;;;;;;19.98;39.36;96122.81;10467381;28;2978;-66
2024/01/22 06:53:12;;;;;;;;;;;;;;;20.00;38.65;96107.56;10466783;28;2993;-66
2024/01/22 06:58:12;;;;;;;;;;;;;;;19.95;39.43;96094.38;10463752;28;3033;-65
2024/01/22 07:03:12;;;;;;;;;;;;;;;19.98;38.11;96097.31;10464150;28;3016;-66
2024/01/22 07:08:12;;;;;;;;;;;;;;;19.90;39.10;96108.34;10467063;28;2973;-65
2024/01/22 07:13:13;;;;;;;;;;;;;;;20.24;38.71;96109.47;10468159;28;2945;-62
2024/01/22 07:18:13;;;;;;;;;;;;;;;20.13;37.25;96107.06;10462480;28;2965;-62
2024/01/22 07:23:13;;;;;;;;;;;;;;;19.93;35.97;96096.47;10468799;28;2943;-68
2024/01/22 07:28:14;;;;;;;;;;;;;;;19.83;35.22;96109.63;10472187;28;2880;-68
2024/01/22 07:33:14;;;;;;;;;;;;;;;19.77;34.77;96102.78;10470326;28;2944;-68
2024/01/22 07:38:14;;;;;;;;;;;;;;;19.71;34.93;96124.84;10465994;28;3120;-65
2024/01/22 07:43:14;;;;;;;;;;;;;;;19.66;34.75;96125.63;10467479;28;2910;-64
2024/01/22 07:48:15;;;;;;;;;;;;;;;19.65;34.77;96131.94;10468655;28;3093;-70
2024/01/22 07:53:15;;;;;;;;;;;;;;;19.69;34.47;96116.44;10470445;28;2850;-71
2024/01/22 07:58:15;;;;;;;;;;;;;;;19.71;33.92;96122.22;10467440;28;2993;-71
2024/01/22 08:03:15;;;;;;;;;;;;;;;19.72;34.05;96118.56;10467780;28;3009;-69
2024/01/22 08:08:16;;;;;;;;;;;;;;;19.72;33.75;96113.28;10464164;28;2898;-68
2024/01/22 08:13:16;;;;;;;;;;;;;;;19.76;33.55;96130.13;10464398;28;3313;-67
2024/01/22 08:18:16;;;;;;;;;;;;;;;19.76;33.48;96130.13;10465885;28;2949;-66
2024/01/22 08:23:16;;;;;;;;;;;;;;;19.79;33.18;96155.91;10469949;28;2930;-65
2024/01/22 08:28:17;;;;;;;;;;;;;;;19.80;32.89;96178.56;10461935;28;2972;-68
2024/01/22 08:33:17;;;;;;;;;;;;;;;19.81;32.98;96191.44;10466511;28;3073;-68
2024/01/22 08:38:17;;;;;;;;;;;;;;;19.83;32.52;96185.91;10461955;28;3016;-66
2024/01/22 08:43:17;;;;;;;;;;;;;;;19.83;32.65;96163.03;10461450;28;2990;-75
2024/01/22 08:48:18;;;;;;;;;;;;;;;19.85;32.36;96137.25;10470974;28;3036;-69
2024/01/22 08:53:18;;;;;;;;;;;;;;;19.85;32.25;96146.97;10465836;28;2861;-69
2024/01/22 08:58:18;;;;;;;;;;;;;;;19.87;31.91;96123.84;10460939;28;2973;-75
2024/01/22 09:03:23;;;;;;;;;;;;;;;19.86;32.11;96123.06;10465242;28;3029;-71
2024/01/22 09:08:24;;;;;;;;;;;;;;;20.03;32.28;96133.38;10463210;28;3097;-65
2024/01/22 09:13:24;;;;;;;;;;;;;;;20.14;31.38;96129.69;10465698;28;2903;-69
2024/01/22 09:18:25;;;;;;;;;;;;;;;20.26;30.73;96124.97;10461452;28;3121;-66
2024/01/22 09:23:25;;;;;;;;;;;;;;;20.35;29.70;96105.00;10459295;28;3000;-65
2024/01/22 09:28:30;;;;;;;;;;;;;;;20.43;30.00;96106.28;10467012;28;2949;-74
2024/01/22 09:33:30;;;;;;;;;;;;;;;20.52;29.40;96105.53;10493409;28;2919;-66
2024/01/22 09:38:30;;;;;;;;;;;;;;;20.56;29.34;96098.69;10460236;28;3259;-70
2024/01/22 09:43:31;;;;;;;;;;;;;;;20.64;28.73;96090.22;10463395;28;2949;-63
2024/01/22 09:48:32;;;;;;;;;;;;;;;20.70;28.98;96086.53;10452868;28;3040;-64
2024/01/22 09:53:34;;;;;;;;;;;;;;;20.74;28.84;96066.50;10463546;28;2921;-64
2024/01/22 09:58:34;;;;;;;;;;;;;;;20.76;28.87;96072.28;10465107;28;2995;-64
2024/01/22 10:03:34;;;;;;;;;;;;;;;20.81;28.38;96063.59;10457199;28;2915;-64
2024/01/22 10:08:35;;;;;;;;;;;;;;;20.85;29.43;96054.09;10466131;28;3082;-71
2024/01/22 10:13:48;;;;;;;;;;;;;;;20.89;29.21;96041.97;10457726;28;3005;-66
2024/01/22 10:18:58;;;;;;;;;;;;;;;20.92;28.83;96020.34;10457988;28;3088;-74
2024/01/22 10:24:02;;;;;;;;;;;;;;;20.94;29.13;96008.47;10461831;28;3005;-68
2024/01/22 10:29:12;;;;;;;;;;;;;;;20.97;30.90;96002.69;10460874;28;3013;-67
2024/01/22 10:34:12;;;;;;;;;;;;;;;21.08;35.19;95997.41;10463549;28;2969;-63
2024/01/22 10:39:13;;;;;;;;;;;;;;;21.12;35.44;95987.88;10452461;28;3326;-66
2024/01/22 10:44:13;;;;;;;;;;;;;;;21.14;36.44;95977.84;10456171;28;3037;-66
2024/01/22 10:49:13;;;;;;;;;;;;;;;21.10;35.26;95969.72;10459477;28;3116;-62
2024/01/22 10:54:14;;;;;;;;;;;;;;;21.00;37.35;95959.16;10452345;28;3063;-63
2024/01/22 10:59:16;;;;;;;;;;;;;;;20.88;37.59;95945.53;10474718;28;2984;-62
2024/01/22 11:04:16;;;;;;;;;;;;;;;20.79;37.98;95961.09;10469538;28;2962;-62
2024/01/22 11:09:16;;;;;;;;;;;;;;;20.69;37.54;95953.22;10470225;28;3032;-59
2024/01/22 11:14:16;;;;;;;;;;;;;;;20.82;41.00;95936.06;10468439;28;2937;-61
2024/01/22 11:19:23;;;;;;;;;;;;;;;20.85;42.36;95923.16;10474262;28;2951;-60
2024/01/22 11:24:23;;;;;;;;;;;;;;;20.89;40.00;95915.50;10471953;28;3031;-63
2024/01/22 11:29:24;;;;;;;;;;;;;;;20.89;38.02;95908.38;10473121;28;2975;-62
2024/01/22 11:34:39;;;;;;;;;;;;;;;20.90;37.65;95902.03;10465679;28;2970;-63
2024/01/22 11:39:41;;;;;;;;;;;;;;;20.93;37.22;95896.25;10463918;28;3314;-63
2024/01/22 11:44:46;;;;;;;;;;;;;;;21.05;36.72;95883.53;10465759;28;3041;-66
2024/01/22 11:49:46;;;;;;;;;;;;;;;21.05;38.25;95866.94;10465477;28;3000;-65
2024/01/22 11:54:56;;;;;;;;;;;;;;;21.04;38.67;95845.06;10469469;28;2949;-72
2024/01/22 12:00:12;;;;;;;;;;;;;;;21.11;39.51;95847.38;10465266;28;3158;-67
2024/01/22 12:05:14;;;;;;;;;;;;;;;21.04;37.36;95829.25;10469994;28;3249;-63
2024/01/22 12:10:19;;;;;;;;;;;;;;;21.04;37.97;95818.69;10467218;28;2904;-62
2024/01/22 12:15:19;;;;;;;;;;;;;;;21.07;38.50;95812.09;10471223;28;3050;-75
2024/01/22 12:20:20;;;;;;;;;;;;;;;21.12;39.15;95803.38;10461959;28;3085;-68
2024/01/22 12:25:20;;;;;;;;;;;;;;;21.05;39.61;95793.94;10462642;28;3731;-67
2024/01/22 12:30:20;;;;;;;;;;;;;;;21.05;39.83;95782.59;10463347;28;3086;-70
2024/01/22 12:35:22;;;;;;;;;;;;;;;21.06;40.19;95771.00;10463632;28;2983;-74
2024/01/22 12:40:23;;;;;;;;;;;;;;;21.03;39.92;95769.72;10498141;27;2984;-68
2024/01/22 12:45:24;;;;;;;;;;;;;;;21.00;41.12;95759.66;10464571;28;2938;-70
2024/01/22 12:50:24;;;;;;;;;;;;;;;21.01;41.28;95758.63;10467432;28;2806;-71
2024/01/22 12:55:24;;;;;;;;;;;;;;;20.97;41.81;95746.28;10470462;28;2880;-77
2024/01/22 13:00:24;;;;;;;;;;;;;;;20.97;41.26;95736.53;10472191;28;3038;-76
2024/01/22 13:05:25;;;;;;;;;;;;;;;20.96;41.40;95742.84;10462405;28;2838;-71
2024/01/22 13:10:25;;;;;;;;;;;;;;;20.98;40.88;95730.19;10462591;28;2956;-74
2024/01/22 13:15:25;;;;;;;;;;;;;;;20.94;42.13;95725.72;10470477;28;3109;-70
2024/01/22 13:20:26;;;;;;;;;;;;;;;20.93;41.35;95737.34;10464104;28;2899;-71
2024/01/22 13:25:28;;;;;;;;;;;;;;;20.95;41.67;95733.38;10462722;28;3008;-68
2024/01/22 13:30:29;;;;;;;;;;;;;;;20.95;40.62;95724.69;10465792;28;2857;-67
2024/01/22 13:35:29;;;;;;;;;;;;;;;20.94;40.48;95723.88;10468316;28;2987;-67
2024/01/22 13:40:30;;;;;;;;;;;;;;;20.92;41.16;95726.00;10461041;28;3190;-78
2024/01/22 13:45:31;;;;;;;;;;;;;;;20.91;41.54;95735.00;10464230;28;2963;-73
2024/01/22 13:50:31;;;;;;;;;;;;;;;20.93;41.42;95743.41;10463385;28;2787;-71
2024/01/22 13:55:31;;;;;;;;;;;;;;;20.91;41.80;95740.25;10468330;28;2937;-78
2024/01/22 14:00:32;;;;;;;;;;;;;;;20.95;40.82;95732.59;10502855;27;2978;-68
2024/01/22 14:05:32;;;;;;;;;;;;;;;20.94;40.42;95739.69;10469822;28;2976;-73
2024/01/22 14:10:32;;;;;;;;;;;;;;;20.94;41.27;95725.72;10464570;28;2965;-76
2024/01/22 14:15:32;;;;;;;;;;;;;;;20.94;40.44;95717.81;10464666;28;3004;-71
2024/01/22 14:20:33;;;;;;;;;;;;;;;20.91;40.04;95705.22;10465995;28;3032;-73
2024/01/22 14:25:33;;;;;;;;;;;;;;;20.97;41.20;95701.47;10461825;28;3090;-73
2024/01/22 14:30:34;;;;;;;;;;;;;;;20.92;39.64;95677.78;10459301;28;2809;-72
2024/01/22 14:35:34;;;;;;;;;;;;;;;20.91;39.45;95695.47;10460907;28;3083;-73
2024/01/22 14:40:34;;;;;;;;;;;;;;;20.92;41.36;95689.13;10442135;28;3374;-67
2024/01/22 14:45:34;;;;;;;;;;;;;;;20.95;38.61;95688.56;10455492;28;3128;-71
2024/01/22 14:50:35;;;;;;;;;;;;;;;20.95;37.71;95687.78;10464046;28;3024;-69
2024/01/22 14:55:35;;;;;;;;;;;;;;;20.94;38.26;95689.63;10463852;28;2968;-71
2024/01/22 15:00:35;;;;;;;;;;;;;;;20.94;39.60;95708.06;10467239;28;2913;-73
2024/01/22 15:05:36;;;;;;;;;;;;;;;20.97;40.20;95723.34;10490219;28;3088;-65
2024/01/22 15:10:38;;;;;;;;;;;;;;;20.96;39.23;95708.59;10458706;28;2890;-65
2024/01/22 15:15:38;;;;;;;;;;;;;;;20.92;39.59;95694.38;10453717;28;3006;-68
2024/01/22 15:20:38;;;;;;;;;;;;;;;20.93;40.00;95677.53;10460595;28;3004;-69
2024/01/22 15:25:38;;;;;;;;;;;;;;;20.95;40.16;95667.50;10468556;28;3029;-70
2024/01/22 15:30:39;;;;;;;;;;;;;;;20.96;40.66;95661.16;10458972;28;2975;-67
2024/01/22 15:35:39;;;;;;;;;;;;;;;20.98;40.39;95655.59;10458516;28;2952;-66
2024/01/22 15:40:39;;;;;;;;;;;;;;;20.98;39.50;95630.03;10457858;28;3247;-66
2024/01/22 15:45:39;;;;;;;;;;;;;;;20.97;41.06;95639.03;10468433;28;2971;-62
2024/01/22 15:50:40;;;;;;;;;;;;;;;21.03;40.17;95647.69;10471616;28;2973;-64
2024/01/22 15:55:42;;;;;;;;;;;;;;;21.00;40.30;95648.19;10471539;28;2876;-68
2024/01/22 16:00:42;;;;;;;;;;;;;;;21.01;41.02;95674.28;10469274;28;2938;-67
2024/01/22 16:05:43;;;;;;;;;;;;;;;21.00;41.11;95671.91;10468049;28;2993;-65
2024/01/22 16:10:44;;;;;;;;;;;;;;;21.00;41.15;95669.28;10466085;28;2901;-71
2024/01/22 16:15:45;;;;;;;;;;;;;;;21.02;42.74;95673.25;10468975;28;2961;-68
2024/01/22 16:20:45;;;;;;;;;;;;;;;21.02;42.04;95673.25;10471151;28;3253;-65
2024/01/22 16:25:45;;;;;;;;;;;;;;;20.96;40.84;95657.72;10465273;28;2893;-67
2024/01/22 16:30:45;;;;;;;;;;;;;;;20.97;40.45;95654.03;10467770;28;2966;-68
2024/01/22 16:35:46;;;;;;;;;;;;;;;20.91;40.59;95645.41;10461777;28;2786;-64
2024/01/22 16:40:46;;;;;;;;;;;;;;;20.92;39.41;95662.78;10463122;28;3067;-68
2024/01/22 16:45:46;;;;;;;;;;;;;;;20.95;41.73;95658.81;10460876;28;2949;-67
2024/01/22 16:50:46;;;;;;;;;;;;;;;20.91;39.29;95674.38;10464310;28;2955;-62
2024/01/22 16:55:47;;;;;;;;;;;;;;;20.89;38.92;95665.97;10457369;28;2925;-66
2024/01/22 17:00:47;;;;;;;;;;;;;;;20.90;38.57;95683.34;10475908;28;2929;-66
2024/01/22 17:05:47;;;;;;;;;;;;;;;20.93;38.48;95716.25;10475598;28;3016;-65
2024/01/22 17:10:48;;;;;;;;;;;;;;;20.95;38.59;95730.75;10477575;28;2280;-66
2024/01/22 17:15:48;;;;;;;;;;;;;;;21.00;36.44;95749.13;10473821;28;1644;-61
2024/01/22 17:20:48;;;;;;;;;;;;;;;20.98;36.89;95756.53;10484262;28;2081;-64
2024/01/22 17:25:49;;;;;;;;;;;;;;;20.99;39.16;95767.84;10484705;28;1909;-65
2024/01/22 17:30:49;;;;;;;;;;;;;;;21.01;38.41;95766.53;10487761;28;2267;-66
2024/01/22 17:35:49;;;;;;;;;;;;;;;21.00;39.64;95796.56;10486152;28;1569;-66
2024/01/22 17:40:50;;;;;;;;;;;;;;;21.03;39.00;95796.06;10482352;28;2373;-65
2024/01/22 17:45:50;;;;;;;;;;;;;;;21.03;37.30;95797.91;10485398;28;1975;-66
2024/01/22 17:50:51;;;;;;;;;;;;;;;21.08;38.43;95812.91;10480380;28;1438;-64
2024/01/22 17:55:51;;;;;;;;;;;;;;;21.15;39.14;95826.53;10485339;28;1463;-68
2024/01/22 18:00:51;;;;;;;;;;;;;;;21.18;37.85;95828.63;10481510;28;1915;-65
2024/01/22 18:05:51;;;;;;;;;;;;;;;21.13;37.29;95847.09;10482208;28;1967;-68
2024/01/22 18:10:52;;;;;;;;;;;;;;;21.09;37.88;95862.69;10485667;28;1477;-68
2024/01/22 18:15:56;;;;;;;;;;;;;;;21.06;37.81;95882.47;10507339;28;2389;-66
2024/01/22 18:20:56;;;;;;;;;;;;;;;21.02;37.94;95889.34;10492481;28;1677;-68
2024/01/22 18:25:57;;;;;;;;;;;;;;;20.93;40.84;95898.88;10473379;28;1975;-65
2024/01/22 18:30:58;;;;;;;;;;;;;;;20.87;41.20;95909.69;10481281;28;1910;-69
2024/01/22 18:35:58;;;;;;;;;;;;;;;20.78;40.77;95921.84;10483135;28;1554;-67
2024/01/22 18:40:58;;;;;;;;;;;;;;;20.72;39.11;95947.44;10473479;28;2945;-66
2024/01/22 18:45:58;;;;;;;;;;;;;;;20.72;39.16;95942.16;10480111;28;1957;-68
2024/01/22 18:50:59;;;;;;;;;;;;;;;20.78;39.98;95958.75;10476598;28;1783;-66
2024/01/22 18:55:59;;;;;;;;;;;;;;;20.73;40.94;95993.03;10493583;28;2399;-66
2024/01/22 19:00:59;;;;;;;;;;;;;;;20.70;39.13;95981.16;10483319;28;1478;-67
2024/01/22 19:06:01;;;;;;;;;;;;;;;20.65;41.22;95990.94;10485217;28;1969;-68
2024/01/22 19:11:02;;;;;;;;;;;;;;;20.70;40.76;96031.22;10479557;28;1667;-68
2024/01/22 19:16:02;;;;;;;;;;;;;;;20.68;39.82;96033.34;10476004;28;1426;-63
2024/01/22 19:21:03;;;;;;;;;;;;;;;20.64;39.50;96032.28;10487993;28;1489;-68
2024/01/22 19:26:03;;;;;;;;;;;;;;;20.62;41.62;96042.31;10486572;28;2724;-67
2024/01/22 19:31:04;;;;;;;;;;;;;;;20.66;38.58;96032.00;10467016;28;3143;-63
2024/01/22 19:36:04;;;;;;;;;;;;;;;20.54;42.24;96031.50;10503686;27;2969;-62
2024/01/22 19:41:04;;;;;;;;;;;;;;;20.60;41.19;96022.53;10470043;28;3031;-65
2024/01/22 19:46:05;;;;;;;;;;;;;;;20.65;41.83;96018.03;10478632;28;3049;-65
2024/01/22 19:51:05;;;;;;;;;;;;;;;20.59;39.41;96047.28;10469467;28;2956;-66
2024/01/22 19:56:05;;;;;;;;;;;;;;;20.57;41.33;96058.09;10468946;28;3131;-65
2024/01/22 20:01:06;;;;;;;;;;;;;;;20.46;41.76;96061.81;10493652;28;3207;-66
2024/01/22 20:06:06;;;;;;;;;;;;;;;20.47;40.36;96076.53;10467857;28;2878;-66
2024/01/22 20:11:08;;;;;;;;;;;;;;;20.40;41.14;96091.84;10465293;28;3028;-66
2024/01/22 20:16:09;;;;;;;;;;;;;;;20.32;43.75;96091.56;10469147;28;2980;-64
2024/01/22 20:21:09;;;;;;;;;;;;;;;20.37;42.20;96084.44;10460658;28;3433;-65
2024/01/22 20:26:10;;;;;;;;;;;;;;;20.30;42.84;96081.28;10469910;28;2937;-65
2024/01/22 20:31:10;;;;;;;;;;;;;;;20.28;42.77;96083.38;10468172;28;3059;-65
2024/01/22 20:36:11;;;;;;;;;;;;;;;20.24;42.42;96087.59;10472925;28;3112;-66
2024/01/22 20:41:11;;;;;;;;;;;;;;;20.26;42.23;96088.13;10467311;28;3132;-67
2024/01/22 20:46:11;;;;;;;;;;;;;;;20.21;41.31;96099.47;10465809;28;3181;-64
2024/01/22 20:51:11;;;;;;;;;;;;;;;20.22;41.97;96100.25;10459523;28;3072;-65
2024/01/22 20:56:12;;;;;;;;;;;;;;;20.19;40.40;96082.31;10467164;28;2956;-65
2024/01/22 21:01:14;;;;;;;;;;;;;;;20.15;41.59;96084.66;10469079;28;2977;-65
2024/01/22 21:06:14;;;;;;;;;;;;;;;20.15;42.10;96086.53;10465775;28;3005;-66
2024/01/22 21:11:15;;;;;;;;;;;;;;;20.14;41.24;96088.38;10465880;28;3073;-67
2024/01/22 21:16:18;;;;;;;;;;;;;;;20.16;40.42;96096.00;10471150;28;3104;-66
2024/01/22 21:21:19;;;;;;;;;;;;;;;20.09;43.08;96098.09;10472028;28;2956;-63
2024/01/22 21:26:19;;;;;;;;;;;;;;;20.10;42.06;96112.84;10467892;28;3004;-61
2024/01/22 21:31:19;;;;;;;;;;;;;;;20.13;42.18;96113.09;10467340;28;3000;-61
2024/01/22 21:36:20;;;;;;;;;;;;;;;20.15;41.78;96121.50;10465517;28;3053;-63
2024/01/22 21:41:20;;;;;;;;;;;;;;;20.14;43.00;96132.31;10465745;28;2909;-60
2024/01/22 21:46:21;;;;;;;;;;;;;;;20.15;40.98;96132.03;10465994;28;3020;-60
2024/01/22 21:51:22;;;;;;;;;;;;;;;20.08;41.49;96133.34;10465732;28;3038;-68
2024/01/22 21:56:22;;;;;;;;;;;;;;;20.08;42.24;96133.34;10472779;28;2982;-67
2024/01/22 22:01:22;;;;;;;;;;;;;;;20.06;43.17;96140.72;10466012;28;3068;-67
2024/01/22 22:06:22;;;;;;;;;;;;;;;20.02;43.01;96143.09;10462304;28;2914;-67
2024/01/22 22:11:25;;;;;;;;;;;;;;;20.06;42.36;96153.88;10469881;28;3019;-66
2024/01/22 22:16:26;;;;;;;;;;;;;;;20.05;43.24;96152.31;10466365;28;2849;-68
2024/01/22 22:21:27;;;;;;;;;;;;;;;19.97;41.39;96150.97;10463765;28;3005;-67
2024/01/22 22:26:27;;;;;;;;;;;;;;;20.04;41.99;96162.03;10465951;28;2870;-66
2024/01/22 22:31:30;;;;;;;;;;;;;;;20.05;41.84;96157.59;10463654;28;2915;-67
2024/01/22 22:36:31;;;;;;;;;;;;;;;20.03;42.60;96162.31;10469584;28;2938;-67
2024/01/22 22:41:31;;;;;;;;;;;;;;;20.03;43.12;96168.34;10465911;28;2864;-66
2024/01/22 22:46:31;;;;;;;;;;;;;;;20.06;43.88;96156.50;10467719;28;3296;-69
2024/01/22 22:51:31;;;;;;;;;;;;;;;20.12;41.70;96163.38;10471226;28;2942;-67
2024/01/22 22:56:32;;;;;;;;;;;;;;;20.01;43.92;96141.50;10474421;28;3090;-67
2024/01/22 23:01:32;;;;;;;;;;;;;;;19.99;42.20;96142.84;10476666;28;3001;-67
2024/01/22 23:06:32;;;;;;;;;;;;;;;20.03;42.55;96147.28;10475737;28;2778;-68
2024/01/22 23:11:33;;;;;;;;;;;;;;;20.00;42.71;96144.41;10470378;28;2986;-67
2024/01/22 23:16:33;;;;;;;;;;;;;;;20.02;41.66;96139.66;10474934;28;2926;-67
2024/01/22 23:21:36;;;;;;;;;;;;;;;19.94;43.53;96140.97;10476619;28;3008;-67
2024/01/22 23:26:36;;;;;;;;;;;;;;;19.97;42.26;96134.41;10476474;28;2878;-69
2024/01/22 23:31:36;;;;;;;;;;;;;;;20.02;42.20;96121.25;10505269;28;2966;-69
2024/01/22 23:36:36;;;;;;;;;;;;;;;20.02;42.72;96134.41;10474958;28;2914;-69
2024/01/22 23:41:37;;;;;;;;;;;;;;;20.06;43.41;96122.31;10477716;28;3096;-69
2024/01/22 23:46:37;;;;;;;;;;;;;;;20.01;43.12;96117.06;10478127;28;3112;-69
2024/01/22 23:51:37;;;;;;;;;;;;;;;20.02;42.56;96108.88;10481452;28;2902;-68
2024/01/22 23:56:37;;;;;;;;;;;;;;;20.02;42.52;96118.63;10476479;28;3008;-68
